Time,TemperatureF,DewpointF,PressureIn,WindDirection,WindDirectionDegrees,WindSpeedMPH,WindSpeedGustMPH,Humidity,HourlyPrecipIn,Conditions,Clouds,dailyrainin,SoftwareType,DateUTC
2013-11-25 01:00:00,22.9,10.2,30.46,North,0,0.0,0.0,58,0.00,,,0.00,WUHU216HW,2013-11-25 06:00:00,
2013-11-25 01:01:00,22.9,10.2,30.46,North,0,0.0,0.0,58,0.00,,,0.00,WUHU216HW,2013-11-25 06:01:00,
2013-11-25 01:06:00,22.7,10.5,30.45,North,0,0.0,0.0,59,0.00,,,0.00,WUHU216HW,2013-11-25 06:06:00,
2013-11-25 01:11:00,22.7,10.5,30.46,North,0,0.0,0.0,59,0.00,,,0.00,WUHU216HW,2013-11-25 06:11:00,
2013-11-25 01:16:00,22.5,10.3,30.45,North,0,0.0,0.0,59,0.00,,,0.00,WUHU216HW,2013-11-25 06:16:00,
2013-11-25 01:21:00,22.3,10.1,30.45,North,0,0.0,0.0,59,0.00,,,0.00,WUHU216HW,2013-11-25 06:21:00,
2013-11-25 01:26:00,22.1,9.9,30.45,North,0,0.0,0.0,59,0.00,,,0.00,WUHU216HW,2013-11-25 06:26:00,
2013-11-25 01:31:00,22.0,10.2,30.45,North,0,0.0,0.0,60,0.00,,,0.00,WUHU216HW,2013-11-25 06:31:00,
2013-11-25 01:36:00,22.0,10.5,30.45,North,0,0.0,0.0,61,0.00,,,0.00,WUHU216HW,2013-11-25 06:36:00,
2013-11-25 01:41:00,22.0,10.5,30.45,North,0,0.0,0.0,61,0.00,,,0.00,WUHU216HW,2013-11-25 06:41:00,
2013-11-25 01:46:00,21.8,10.4,30.45,North,0,0.0,0.0,61,0.00,,,0.00,WUHU216HW,2013-11-25 06:46:00,
2013-11-25 01:51:00,21.6,10.2,30.45,North,0,0.0,0.0,61,0.00,,,0.00,WUHU216HW,2013-11-25 06:51:00,
2013-11-25 01:56:00,21.4,10.1,30.45,North,0,0.0,0.0,61,0.00,,,0.00,WUHU216HW,2013-11-25 06:56:00,
2013-11-25 02:01:00,21.4,10.1,30.46,North,0,0.0,0.0,61,0.00,,,0.00,WUHU216HW,2013-11-25 07:01:00,
2013-11-25 02:02:00,21.4,10.1,30.46,North,0,0.0,0.0,61,0.00,,,0.00,WUHU216HW,2013-11-25 07:02:00,
2013-11-25 02:07:00,21.2,9.9,30.46,North,0,0.0,0.0,61,0.00,,,0.00,WUHU216HW,2013-11-25 07:07:00,
2013-11-25 02:12:00,21.2,10.3,30.46,North,0,0.0,0.0,62,0.00,,,0.00,WUHU216HW,2013-11-25 07:12:00,
2013-11-25 02:17:00,21.2,9.9,30.46,North,0,0.0,0.0,61,0.00,,,0.00,WUHU216HW,2013-11-25 07:17:00,
2013-11-25 02:22:00,21.2,10.3,30.46,North,0,0.0,0.0,62,0.00,,,0.00,WUHU216HW,2013-11-25 07:22:00,
2013-11-25 02:27:00,21.2,10.3,30.47,North,0,0.0,0.0,62,0.00,,,0.00,WUHU216HW,2013-11-25 07:27:00,
2013-11-25 02:32:00,21.1,10.7,30.47,North,0,0.0,0.0,64,0.00,,,0.00,WUHU216HW,2013-11-25 07:32:00,
2013-11-25 02:37:00,20.9,10.2,30.46,North,0,0.0,0.0,63,0.00,,,0.00,WUHU216HW,2013-11-25 07:37:00,
2013-11-25 02:42:00,20.7,10.0,30.46,North,0,0.0,0.0,63,0.00,,,0.00,WUHU216HW,2013-11-25 07:42:00,
2013-11-25 02:47:00,20.7,9.7,30.46,North,0,0.0,0.0,62,0.00,,,0.00,WUHU216HW,2013-11-25 07:47:00,
2013-11-25 02:52:00,20.9,10.2,30.45,North,0,0.0,0.0,63,0.00,,,0.00,WUHU216HW,2013-11-25 07:52:00,
2013-11-25 02:57:00,20.7,9.7,30.46,North,0,0.0,0.0,62,0.00,,,0.00,WUHU216HW,2013-11-25 07:57:00,
2013-11-25 03:02:00,20.7,9.7,30.45,North,0,0.0,0.0,62,0.00,,,0.00,WUHU216HW,2013-11-25 08:02:00,
2013-11-25 03:07:00,20.5,9.6,30.45,North,0,0.0,0.0,62,0.00,,,0.00,WUHU216HW,2013-11-25 08:07:00,
2013-11-25 03:12:00,20.7,10.0,30.45,North,0,0.0,0.0,63,0.00,,,0.00,WUHU216HW,2013-11-25 08:12:00,
2013-11-25 03:17:00,20.7,9.7,30.45,North,0,0.0,0.0,62,0.00,,,0.00,WUHU216HW,2013-11-25 08:17:00,
2013-11-25 03:22:00,20.5,9.6,30.45,North,0,0.0,0.0,62,0.00,,,0.00,WUHU216HW,2013-11-25 08:22:00,
2013-11-25 03:27:00,20.5,9.6,30.45,North,0,0.0,0.0,62,0.00,,,0.00,WUHU216HW,2013-11-25 08:27:00,
2013-11-25 03:32:00,20.3,9.4,30.45,North,0,0.0,0.0,62,0.00,,,0.00,WUHU216HW,2013-11-25 08:32:00,
2013-11-25 03:37:00,20.3,9.4,30.45,North,0,0.0,0.0,62,0.00,,,0.00,WUHU216HW,2013-11-25 08:37:00,
2013-11-25 03:42:00,20.3,9.4,30.44,North,0,0.0,0.0,62,0.00,,,0.00,WUHU216HW,2013-11-25 08:42:00,
2013-11-25 03:47:00,20.2,9.2,30.44,North,0,0.0,0.0,62,0.00,,,0.00,WUHU216HW,2013-11-25 08:47:00,
2013-11-25 03:52:00,20.3,9.4,30.44,North,0,0.0,0.0,62,0.00,,,0.00,WUHU216HW,2013-11-25 08:52:00,
2013-11-25 03:57:00,20.3,9.4,30.44,North,0,0.0,0.0,62,0.00,,,0.00,WUHU216HW,2013-11-25 08:57:00,
2013-11-25 04:02:00,20.5,9.8,30.44,North,0,0.0,0.0,63,0.00,,,0.00,WUHU216HW,2013-11-25 09:02:00,
2013-11-25 04:07:00,20.5,9.6,30.45,North,0,0.0,0.0,62,0.00,,,0.00,WUHU216HW,2013-11-25 09:07:00,
2013-11-25 04:12:00,20.5,9.6,30.45,North,0,0.0,0.0,62,0.00,,,0.00,WUHU216HW,2013-11-25 09:12:00,
2013-11-25 04:17:00,20.5,9.6,30.45,North,0,0.0,0.0,62,0.00,,,0.00,WUHU216HW,2013-11-25 09:17:00,
2013-11-25 04:22:00,20.7,9.7,30.45,North,0,0.0,0.0,62,0.00,,,0.00,WUHU216HW,2013-11-25 09:22:00,
2013-11-25 04:27:00,20.9,9.9,30.46,North,0,0.0,0.0,62,0.00,,,0.00,WUHU216HW,2013-11-25 09:27:00,
2013-11-25 04:32:00,20.9,10.2,30.45,North,0,0.0,0.0,63,0.00,,,0.00,WUHU216HW,2013-11-25 09:32:00,
2013-11-25 04:37:00,20.9,9.9,30.46,North,0,0.0,0.0,62,0.00,,,0.00,WUHU216HW,2013-11-25 09:37:00,
2013-11-25 04:42:00,20.7,10.0,30.46,North,0,0.0,0.0,63,0.00,,,0.00,WUHU216HW,2013-11-25 09:42:00,
2013-11-25 04:47:00,20.5,9.6,30.46,North,0,0.0,0.0,62,0.00,,,0.00,WUHU216HW,2013-11-25 09:47:00,
2013-11-25 04:52:00,20.3,9.4,30.45,North,0,0.0,0.0,62,0.00,,,0.00,WUHU216HW,2013-11-25 09:52:00,
2013-11-25 04:57:00,20.2,9.2,30.45,North,0,0.0,0.0,62,0.00,,,0.00,WUHU216HW,2013-11-25 09:57:00,
2013-11-25 05:02:00,20.3,9.4,30.46,North,0,0.0,0.0,62,0.00,,,0.00,WUHU216HW,2013-11-25 10:02:00,
2013-11-25 05:07:00,20.3,9.4,30.45,North,0,0.0,0.0,62,0.00,,,0.00,WUHU216HW,2013-11-25 10:07:00,
2013-11-25 05:12:00,20.2,9.2,30.46,North,0,0.0,0.0,62,0.00,,,0.00,WUHU216HW,2013-11-25 10:12:00,
2013-11-25 05:17:00,19.8,8.8,30.46,North,0,0.0,0.0,62,0.00,,,0.00,WUHU216HW,2013-11-25 10:17:00,
2013-11-25 05:22:00,19.8,8.8,30.46,North,0,0.0,0.0,62,0.00,,,0.00,WUHU216HW,2013-11-25 10:22:00,
2013-11-25 05:27:00,19.8,8.8,30.46,North,0,0.0,0.0,62,0.00,,,0.00,WUHU216HW,2013-11-25 10:27:00,
2013-11-25 05:32:00,20.0,9.0,30.45,North,0,0.0,0.0,62,0.00,,,0.00,WUHU216HW,2013-11-25 10:32:00,
2013-11-25 05:37:00,19.8,8.8,30.46,North,0,0.0,0.0,62,0.00,,,0.00,WUHU216HW,2013-11-25 10:37:00,
2013-11-25 05:42:00,19.6,8.9,30.46,North,0,0.0,0.0,63,0.00,,,0.00,WUHU216HW,2013-11-25 10:42:00,
2013-11-25 05:47:00,19.6,8.7,30.46,North,0,0.0,0.0,62,0.00,,,0.00,WUHU216HW,2013-11-25 10:47:00,
2013-11-25 05:52:00,19.8,9.1,30.47,North,0,0.0,0.0,63,0.00,,,0.00,WUHU216HW,2013-11-25 10:52:00,
2013-11-25 05:57:00,19.6,8.9,30.47,North,0,0.0,0.0,63,0.00,,,0.00,WUHU216HW,2013-11-25 10:57:00,
2013-11-25 06:02:00,19.4,8.7,30.47,North,0,0.0,0.0,63,0.00,,,0.00,WUHU216HW,2013-11-25 11:02:00,
2013-11-25 06:07:00,19.4,8.7,30.47,North,0,0.0,0.0,63,0.00,,,0.00,WUHU216HW,2013-11-25 11:07:00,
2013-11-25 06:12:00,19.6,8.9,30.46,North,0,0.0,0.0,63,0.00,,,0.00,WUHU216HW,2013-11-25 11:12:00,
2013-11-25 06:18:00,19.8,9.1,30.47,North,0,0.0,0.0,63,0.00,,,0.00,WUHU216HW,2013-11-25 11:18:00,
2013-11-25 06:23:00,19.6,8.9,30.47,North,0,0.0,0.0,63,0.00,,,0.00,WUHU216HW,2013-11-25 11:23:00,
2013-11-25 06:28:00,19.8,9.1,30.46,North,0,0.0,0.0,63,0.00,,,0.00,WUHU216HW,2013-11-25 11:28:00,
2013-11-25 06:33:00,19.8,9.1,30.46,North,0,0.0,0.0,63,0.00,,,0.00,WUHU216HW,2013-11-25 11:33:00,
2013-11-25 06:38:00,19.8,9.1,30.46,North,0,0.0,0.0,63,0.00,,,0.00,WUHU216HW,2013-11-25 11:38:00,
2013-11-25 06:43:00,19.8,9.1,30.46,North,0,0.0,0.0,63,0.00,,,0.00,WUHU216HW,2013-11-25 11:43:00,
2013-11-25 06:48:00,19.8,9.5,30.47,North,0,0.0,0.0,64,0.00,,,0.00,WUHU216HW,2013-11-25 11:48:00,
2013-11-25 06:53:00,19.8,9.1,30.47,North,0,0.0,0.0,63,0.00,,,0.00,WUHU216HW,2013-11-25 11:53:00,
2013-11-25 06:58:00,19.8,9.1,30.47,North,0,0.0,0.0,63,0.00,,,0.00,WUHU216HW,2013-11-25 11:58:00,
2013-11-25 07:03:00,19.8,9.1,30.47,North,0,0.0,0.0,63,0.00,,,0.00,WUHU216HW,2013-11-25 12:03:00,
2013-11-25 07:08:00,20.3,10.0,30.47,North,0,0.0,0.0,64,0.00,,,0.00,WUHU216HW,2013-11-25 12:08:00,
2013-11-25 07:13:00,20.7,10.4,30.47,North,0,0.0,0.0,64,0.00,,,0.00,WUHU216HW,2013-11-25 12:13:00,
2013-11-25 07:18:00,20.9,10.5,30.47,North,0,0.0,0.0,64,0.00,,,0.00,WUHU216HW,2013-11-25 12:18:00,
2013-11-25 07:23:00,20.7,10.0,30.47,North,0,0.0,0.0,63,0.00,,,0.00,WUHU216HW,2013-11-25 12:23:00,
2013-11-25 07:28:00,20.5,9.8,30.47,North,0,0.0,0.0,63,0.00,,,0.00,WUHU216HW,2013-11-25 12:28:00,
2013-11-25 07:33:00,20.5,9.8,30.47,North,0,0.0,0.0,63,0.00,,,0.00,WUHU216HW,2013-11-25 12:33:00,
2013-11-25 07:38:00,20.7,10.0,30.47,North,0,0.0,0.0,63,0.00,,,0.00,WUHU216HW,2013-11-25 12:38:00,
2013-11-25 07:43:00,20.9,10.2,30.47,North,0,0.0,0.0,63,0.00,,,0.00,WUHU216HW,2013-11-25 12:43:00,
2013-11-25 07:48:00,21.1,10.7,30.47,North,0,0.0,0.0,64,0.00,,,0.00,WUHU216HW,2013-11-25 12:48:00,
2013-11-25 07:53:00,21.1,10.7,30.47,North,0,0.0,0.0,64,0.00,,,0.00,WUHU216HW,2013-11-25 12:53:00,
2013-11-25 07:58:00,21.4,10.7,30.47,North,0,0.0,0.0,63,0.00,,,0.00,WUHU216HW,2013-11-25 12:58:00,
2013-11-25 08:03:00,21.8,11.1,30.47,North,0,0.0,0.0,63,0.00,,,0.00,WUHU216HW,2013-11-25 13:03:00,
2013-11-25 08:08:00,22.1,11.4,30.48,North,0,0.0,0.0,63,0.00,,,0.00,WUHU216HW,2013-11-25 13:08:00,
2013-11-25 08:13:00,22.1,11.4,30.48,North,0,0.0,0.0,63,0.00,,,0.00,WUHU216HW,2013-11-25 13:13:00,
2013-11-25 08:18:00,22.5,11.3,30.48,North,0,0.0,0.0,62,0.00,,,0.00,WUHU216HW,2013-11-25 13:18:00,
2013-11-25 08:23:00,22.7,11.5,30.48,North,0,0.0,0.0,62,0.00,,,0.00,WUHU216HW,2013-11-25 13:23:00,
2013-11-25 08:28:00,23.2,11.7,30.48,North,0,0.0,0.0,61,0.00,,,0.00,WUHU216HW,2013-11-25 13:28:00,
2013-11-25 08:33:00,23.6,12.1,30.48,North,0,0.0,0.0,61,0.00,,,0.00,WUHU216HW,2013-11-25 13:33:00,
2013-11-25 08:38:00,24.1,12.6,30.48,North,0,0.0,0.0,61,0.00,,,0.00,WUHU216HW,2013-11-25 13:38:00,
2013-11-25 08:43:00,24.7,13.2,30.48,North,0,0.0,0.0,61,0.00,,,0.00,WUHU216HW,2013-11-25 13:43:00,
2013-11-25 08:48:00,25.2,13.3,30.48,North,0,0.0,0.0,60,0.00,,,0.00,WUHU216HW,2013-11-25 13:48:00,
2013-11-25 08:53:00,25.9,13.5,30.48,North,0,0.0,0.0,59,0.00,,,0.00,WUHU216HW,2013-11-25 13:53:00,
2013-11-25 08:58:00,26.6,14.1,30.49,North,0,0.0,0.0,59,0.00,,,0.00,WUHU216HW,2013-11-25 13:58:00,
2013-11-25 09:03:00,27.0,13.7,30.49,North,0,0.0,0.0,57,0.00,,,0.00,WUHU216HW,2013-11-25 14:03:00,
2013-11-25 09:08:00,27.7,14.4,30.49,North,0,0.0,0.0,57,0.00,,,0.00,WUHU216HW,2013-11-25 14:08:00,
2013-11-25 09:13:00,28.1,14.0,30.49,North,0,0.0,0.0,55,0.00,,,0.00,WUHU216HW,2013-11-25 14:13:00,
2013-11-25 09:18:00,28.4,14.3,30.49,North,0,0.0,0.0,55,0.00,,,0.00,WUHU216HW,2013-11-25 14:18:00,
2013-11-25 09:23:00,29.0,14.8,30.49,North,0,0.0,0.0,55,0.00,,,0.00,WUHU216HW,2013-11-25 14:23:00,
2013-11-25 09:28:00,29.5,14.9,30.49,North,0,0.0,0.0,54,0.00,,,0.00,WUHU216HW,2013-11-25 14:28:00,
2013-11-25 09:33:00,29.9,14.4,30.49,North,0,0.0,0.0,52,0.00,,,0.00,WUHU216HW,2013-11-25 14:33:00,
2013-11-25 09:38:00,30.1,14.5,30.49,North,0,0.0,0.0,52,0.00,,,0.00,WUHU216HW,2013-11-25 14:38:00,
2013-11-25 09:43:00,30.2,13.9,30.49,North,0,0.0,0.0,50,0.00,,,0.00,WUHU216HW,2013-11-25 14:43:00,
2013-11-25 09:48:00,30.2,14.3,30.49,North,0,0.0,0.0,51,0.00,,,0.00,WUHU216HW,2013-11-25 14:48:00,
2013-11-25 09:53:00,30.6,15.0,30.49,North,0,0.0,0.0,52,0.00,,,0.00,WUHU216HW,2013-11-25 14:53:00,
2013-11-25 09:58:00,30.8,15.2,30.49,North,0,0.0,0.0,52,0.00,,,0.00,WUHU216HW,2013-11-25 14:58:00,
2013-11-25 10:03:00,31.3,15.7,30.49,North,0,0.0,0.0,52,0.00,,,0.00,WUHU216HW,2013-11-25 15:03:00,
2013-11-25 10:08:00,31.7,15.1,30.49,North,0,0.0,0.0,50,0.00,,,0.00,WUHU216HW,2013-11-25 15:08:00,
2013-11-25 10:13:00,32.0,15.5,30.49,North,0,0.0,0.0,50,0.00,,,0.00,WUHU216HW,2013-11-25 15:13:00,
2013-11-25 10:18:00,32.2,15.7,30.49,North,0,0.0,0.0,50,0.00,,,0.00,WUHU216HW,2013-11-25 15:18:00,
2013-11-25 10:23:00,32.6,15.5,30.49,North,0,0.0,0.0,49,0.00,,,0.00,WUHU216HW,2013-11-25 15:23:00,
2013-11-25 10:28:00,32.9,15.8,30.48,North,0,0.0,0.0,49,0.00,,,0.00,WUHU216HW,2013-11-25 15:28:00,
2013-11-25 10:33:00,32.9,14.8,30.48,North,0,0.0,0.0,47,0.00,,,0.00,WUHU216HW,2013-11-25 15:33:00,
2013-11-25 10:38:00,33.1,14.9,30.48,North,0,0.0,0.0,47,0.00,,,0.00,WUHU216HW,2013-11-25 15:38:00,
2013-11-25 10:43:00,32.9,12.8,30.47,North,0,0.0,0.0,43,0.00,,,0.00,WUHU216HW,2013-11-25 15:43:00,
2013-11-25 10:48:00,33.1,13.4,30.47,North,0,0.0,0.0,44,0.00,,,0.00,WUHU216HW,2013-11-25 15:48:00,
2013-11-25 10:53:00,33.1,13.4,30.47,North,0,0.0,0.0,44,0.00,,,0.00,WUHU216HW,2013-11-25 15:53:00,
2013-11-25 10:58:00,33.5,12.8,30.47,North,0,0.0,0.0,42,0.00,,,0.00,WUHU216HW,2013-11-25 15:58:00,
2013-11-25 11:03:00,33.5,13.8,30.47,North,0,0.0,0.0,44,0.00,,,0.00,WUHU216HW,2013-11-25 16:03:00,
2013-11-25 11:08:00,33.8,14.0,30.46,North,0,0.0,0.0,44,0.00,,,0.00,WUHU216HW,2013-11-25 16:08:00,
2013-11-25 11:13:00,34.0,14.2,30.46,North,0,0.0,0.0,44,0.00,,,0.00,WUHU216HW,2013-11-25 16:13:00,
2013-11-25 11:18:00,34.2,14.0,30.46,North,0,0.0,0.0,43,0.00,,,0.00,WUHU216HW,2013-11-25 16:18:00,
2013-11-25 11:23:00,34.6,14.2,30.45,North,0,0.0,0.0,43,0.00,,,0.00,WUHU216HW,2013-11-25 16:23:00,
2013-11-25 11:28:00,34.9,15.1,30.45,North,0,0.0,0.0,44,0.00,,,0.00,WUHU216HW,2013-11-25 16:28:00,
2013-11-25 11:33:00,34.9,14.6,30.45,North,0,0.0,0.0,43,0.00,,,0.00,WUHU216HW,2013-11-25 16:33:00,
2013-11-25 11:38:00,35.3,15.0,30.45,North,0,0.0,0.0,43,0.00,,,0.00,WUHU216HW,2013-11-25 16:38:00,
2013-11-25 11:43:00,35.5,14.1,30.45,North,0,0.0,0.0,41,0.00,,,0.00,WUHU216HW,2013-11-25 16:43:00,
2013-11-25 11:48:00,35.6,14.8,30.45,North,0,0.0,0.0,42,0.00,,,0.00,WUHU216HW,2013-11-25 16:48:00,
2013-11-25 11:53:00,36.0,15.0,30.44,North,0,0.0,0.0,42,0.00,,,0.00,WUHU216HW,2013-11-25 16:53:00,
2013-11-25 11:58:00,36.2,15.8,30.44,North,0,0.0,0.0,43,0.00,,,0.00,WUHU216HW,2013-11-25 16:58:00,
2013-11-25 12:03:00,36.2,15.8,30.43,North,0,0.0,0.0,43,0.00,,,0.00,WUHU216HW,2013-11-25 17:03:00,
2013-11-25 12:08:00,36.4,15.9,30.44,North,0,0.0,0.0,43,0.00,,,0.00,WUHU216HW,2013-11-25 17:08:00,
2013-11-25 12:13:00,36.5,16.0,30.44,North,0,0.0,0.0,43,0.00,,,0.00,WUHU216HW,2013-11-25 17:13:00,
2013-11-25 12:18:00,36.5,13.2,30.44,North,0,0.0,0.0,38,0.00,,,0.00,WUHU216HW,2013-11-25 17:18:00,
2013-11-25 12:23:00,36.7,14.1,30.44,North,0,0.0,0.0,39,0.00,,,0.00,WUHU216HW,2013-11-25 17:23:00,
2013-11-25 12:28:00,36.7,15.7,30.43,North,0,0.0,0.0,42,0.00,,,0.00,WUHU216HW,2013-11-25 17:28:00,
2013-11-25 12:33:00,37.1,16.0,30.43,North,0,0.0,0.0,42,0.00,,,0.00,WUHU216HW,2013-11-25 17:33:00,
2013-11-25 12:38:00,37.4,16.8,30.43,North,0,0.0,0.0,43,0.00,,,0.00,WUHU216HW,2013-11-25 17:38:00,
2013-11-25 12:43:00,37.6,14.9,30.43,North,0,0.0,0.0,39,0.00,,,0.00,WUHU216HW,2013-11-25 17:43:00,
2013-11-25 12:48:00,37.6,12.9,30.42,North,0,0.0,0.0,36,0.00,,,0.00,WUHU216HW,2013-11-25 17:48:00,
2013-11-25 12:53:00,37.6,14.1,30.41,North,0,0.0,0.0,38,0.00,,,0.00,WUHU216HW,2013-11-25 17:53:00,
2013-11-25 12:58:00,37.8,15.7,30.42,North,0,0.0,0.0,40,0.00,,,0.00,WUHU216HW,2013-11-25 17:58:00,
2013-11-25 13:03:00,37.8,16.1,30.41,North,0,0.0,0.0,41,0.00,,,0.00,WUHU216HW,2013-11-25 18:03:00,
2013-11-25 13:08:00,37.8,15.7,30.41,North,0,0.0,0.0,40,0.00,,,0.00,WUHU216HW,2013-11-25 18:08:00,
2013-11-25 13:13:00,38.0,16.3,30.41,North,0,0.0,0.0,41,0.00,,,0.00,WUHU216HW,2013-11-25 18:13:00,
2013-11-25 13:18:00,37.8,15.7,30.40,North,0,0.0,0.0,40,0.00,,,0.00,WUHU216HW,2013-11-25 18:18:00,
2013-11-25 13:23:00,38.0,16.3,30.40,North,0,0.0,0.0,41,0.00,,,0.00,WUHU216HW,2013-11-25 18:23:00,
2013-11-25 13:28:00,38.2,16.5,30.39,North,0,0.0,0.0,41,0.00,,,0.00,WUHU216HW,2013-11-25 18:28:00,
2013-11-25 13:33:00,38.5,16.3,30.39,North,0,0.0,0.0,40,0.00,,,0.00,WUHU216HW,2013-11-25 18:33:00,
2013-11-25 13:38:00,38.9,15.9,30.39,North,0,0.0,0.0,39,0.00,,,0.00,WUHU216HW,2013-11-25 18:38:00,
2013-11-25 13:43:00,38.9,15.9,30.39,North,0,0.0,0.0,39,0.00,,,0.00,WUHU216HW,2013-11-25 18:43:00,
2013-11-25 13:48:00,39.1,16.7,30.38,North,0,0.0,0.0,40,0.00,,,0.00,WUHU216HW,2013-11-25 18:48:00,
2013-11-25 13:53:00,39.2,16.3,30.38,North,0,0.0,0.0,39,0.00,,,0.00,WUHU216HW,2013-11-25 18:53:00,
2013-11-25 13:58:00,39.4,14.5,30.37,North,0,0.0,0.0,36,0.00,,,0.00,WUHU216HW,2013-11-25 18:58:00,
2013-11-25 14:03:00,39.6,14.7,30.37,North,0,0.0,0.0,36,0.00,,,0.00,WUHU216HW,2013-11-25 19:03:00,
2013-11-25 14:08:00,39.6,15.3,30.37,North,0,0.0,0.0,37,0.00,,,0.00,WUHU216HW,2013-11-25 19:08:00,
2013-11-25 14:13:00,39.8,16.1,30.37,North,0,0.0,0.0,38,0.00,,,0.00,WUHU216HW,2013-11-25 19:13:00,
2013-11-25 14:18:00,39.8,16.1,30.37,North,0,0.0,0.0,38,0.00,,,0.00,WUHU216HW,2013-11-25 19:18:00,
2013-11-25 14:23:00,40.0,15.7,30.37,North,0,0.0,0.0,37,0.00,,,0.00,WUHU216HW,2013-11-25 19:23:00,
2013-11-25 14:28:00,40.3,12.7,30.37,North,0,0.0,0.0,32,0.00,,,0.00,WUHU216HW,2013-11-25 19:28:00,
2013-11-25 14:33:00,40.3,14.7,30.36,North,0,0.0,0.0,35,0.00,,,0.00,WUHU216HW,2013-11-25 19:33:00,
2013-11-25 14:38:00,40.7,16.3,30.36,North,0,0.0,0.0,37,0.00,,,0.00,WUHU216HW,2013-11-25 19:38:00,
2013-11-25 14:43:00,41.0,17.3,30.36,North,0,0.0,0.0,38,0.00,,,0.00,WUHU216HW,2013-11-25 19:43:00,
2013-11-25 14:48:00,41.4,17.6,30.36,North,0,0.0,0.0,38,0.00,,,0.00,WUHU216HW,2013-11-25 19:48:00,
2013-11-25 14:53:00,41.6,17.1,30.36,North,0,0.0,0.0,37,0.00,,,0.00,WUHU216HW,2013-11-25 19:53:00,
2013-11-25 14:58:00,41.8,17.2,30.36,North,0,0.0,0.0,37,0.00,,,0.00,WUHU216HW,2013-11-25 19:58:00,
2013-11-25 15:03:00,41.8,17.2,30.36,North,0,0.0,0.0,37,0.00,,,0.00,WUHU216HW,2013-11-25 20:03:00,
2013-11-25 15:08:00,41.6,17.7,30.36,North,0,0.0,0.0,38,0.00,,,0.00,WUHU216HW,2013-11-25 20:08:00,
2013-11-25 15:13:00,41.4,17.6,30.36,North,0,0.0,0.0,38,0.00,,,0.00,WUHU216HW,2013-11-25 20:13:00,
2013-11-25 15:18:00,41.4,17.6,30.36,North,0,0.0,0.0,38,0.00,,,0.00,WUHU216HW,2013-11-25 20:18:00,
2013-11-25 15:23:00,41.4,16.9,30.36,North,0,0.0,0.0,37,0.00,,,0.00,WUHU216HW,2013-11-25 20:23:00,
2013-11-25 15:28:00,41.2,16.1,30.37,North,0,0.0,0.0,36,0.00,,,0.00,WUHU216HW,2013-11-25 20:28:00,
2013-11-25 15:33:00,41.2,16.7,30.37,North,0,0.0,0.0,37,0.00,,,0.00,WUHU216HW,2013-11-25 20:33:00,
2013-11-25 15:38:00,41.4,17.6,30.37,North,0,0.0,0.0,38,0.00,,,0.00,WUHU216HW,2013-11-25 20:38:00,
2013-11-25 15:43:00,41.2,16.7,30.36,North,0,0.0,0.0,37,0.00,,,0.00,WUHU216HW,2013-11-25 20:43:00,
2013-11-25 15:48:00,41.2,17.4,30.36,North,0,0.0,0.0,38,0.00,,,0.00,WUHU216HW,2013-11-25 20:48:00,
2013-11-25 15:53:00,41.0,17.3,30.36,North,0,0.0,0.0,38,0.00,,,0.00,WUHU216HW,2013-11-25 20:53:00,
2013-11-25 15:58:00,41.2,17.4,30.36,North,0,0.0,0.0,38,0.00,,,0.00,WUHU216HW,2013-11-25 20:58:00,
2013-11-25 16:03:00,41.4,16.9,30.36,North,0,0.0,0.0,37,0.00,,,0.00,WUHU216HW,2013-11-25 21:03:00,
2013-11-25 16:08:00,41.4,16.9,30.36,North,0,0.0,0.0,37,0.00,,,0.00,WUHU216HW,2013-11-25 21:08:00,
2013-11-25 16:13:00,41.4,17.6,30.36,North,0,0.0,0.0,38,0.00,,,0.00,WUHU216HW,2013-11-25 21:13:00,
2013-11-25 16:18:00,41.4,17.6,30.35,North,0,0.0,0.0,38,0.00,,,0.00,WUHU216HW,2013-11-25 21:18:00,
2013-11-25 16:23:00,41.0,17.3,30.36,North,0,0.0,0.0,38,0.00,,,0.00,WUHU216HW,2013-11-25 21:23:00,
2013-11-25 16:28:00,40.9,17.1,30.36,North,0,0.0,0.0,38,0.00,,,0.00,WUHU216HW,2013-11-25 21:28:00,
2013-11-25 16:33:00,40.5,16.7,30.36,North,0,0.0,0.0,38,0.00,,,0.00,WUHU216HW,2013-11-25 21:33:00,
2013-11-25 16:38:00,40.3,16.6,30.36,North,0,0.0,0.0,38,0.00,,,0.00,WUHU216HW,2013-11-25 21:38:00,
2013-11-25 16:43:00,40.0,16.9,30.35,North,0,0.0,0.0,39,0.00,,,0.00,WUHU216HW,2013-11-25 21:43:00,
2013-11-25 16:48:00,40.0,16.9,30.35,North,0,0.0,0.0,39,0.00,,,0.00,WUHU216HW,2013-11-25 21:48:00,
2013-11-25 16:53:00,39.6,17.3,30.35,North,0,0.0,0.0,40,0.00,,,0.00,WUHU216HW,2013-11-25 21:53:00,
2013-11-25 16:58:00,39.4,17.1,30.35,North,0,0.0,0.0,40,0.00,,,0.00,WUHU216HW,2013-11-25 21:58:00,
2013-11-25 17:03:00,39.1,17.3,30.35,North,0,0.0,0.0,41,0.00,,,0.00,WUHU216HW,2013-11-25 22:03:00,
2013-11-25 17:08:00,38.7,16.9,30.35,North,0,0.0,0.0,41,0.00,,,0.00,WUHU216HW,2013-11-25 22:08:00,
2013-11-25 17:13:00,38.3,17.2,30.35,North,0,0.0,0.0,42,0.00,,,0.00,WUHU216HW,2013-11-25 22:13:00,
2013-11-25 17:18:00,37.8,16.1,30.36,North,0,0.0,0.0,41,0.00,,,0.00,WUHU216HW,2013-11-25 22:18:00,
2013-11-25 17:23:00,37.4,16.4,30.36,North,0,0.0,0.0,42,0.00,,,0.00,WUHU216HW,2013-11-25 22:23:00,
2013-11-25 17:28:00,37.4,16.8,30.36,North,0,0.0,0.0,43,0.00,,,0.00,WUHU216HW,2013-11-25 22:28:00,
2013-11-25 17:33:00,37.3,16.8,30.35,North,0,0.0,0.0,43,0.00,,,0.00,WUHU216HW,2013-11-25 22:33:00,
2013-11-25 17:38:00,37.1,16.6,30.36,North,0,0.0,0.0,43,0.00,,,0.00,WUHU216HW,2013-11-25 22:38:00,
2013-11-25 17:43:00,37.3,17.7,30.35,North,0,0.0,0.0,45,0.00,,,0.00,WUHU216HW,2013-11-25 22:43:00,
2013-11-25 17:48:00,37.3,17.7,30.36,North,0,0.0,0.0,45,0.00,,,0.00,WUHU216HW,2013-11-25 22:48:00,
2013-11-25 17:53:00,36.5,16.6,30.36,North,0,0.0,0.0,44,0.00,,,0.00,WUHU216HW,2013-11-25 22:53:00,
2013-11-25 17:58:00,36.0,15.6,30.36,North,0,0.0,0.0,43,0.00,,,0.00,WUHU216HW,2013-11-25 22:58:00,
2013-11-25 18:03:00,35.6,15.8,30.36,North,0,0.0,0.0,44,0.00,,,0.00,WUHU216HW,2013-11-25 23:03:00,
2013-11-25 18:08:00,35.1,15.8,30.35,North,0,0.0,0.0,45,0.00,,,0.00,WUHU216HW,2013-11-25 23:08:00,
2013-11-25 18:13:00,34.6,15.3,30.36,North,0,0.0,0.0,45,0.00,,,0.00,WUHU216HW,2013-11-25 23:13:00,
2013-11-25 18:18:00,34.0,14.8,30.35,North,0,0.0,0.0,45,0.00,,,0.00,WUHU216HW,2013-11-25 23:18:00,
2013-11-25 18:23:00,33.8,15.1,30.35,North,0,0.0,0.0,46,0.00,,,0.00,WUHU216HW,2013-11-25 23:23:00,
2013-11-25 18:28:00,33.8,15.6,30.36,North,0,0.0,0.0,47,0.00,,,0.00,WUHU216HW,2013-11-25 23:28:00,
2013-11-25 18:33:00,33.5,15.3,30.35,North,0,0.0,0.0,47,0.00,,,0.00,WUHU216HW,2013-11-25 23:33:00,
2013-11-25 18:38:00,33.3,15.6,30.35,North,0,0.0,0.0,48,0.00,,,0.00,WUHU216HW,2013-11-25 23:38:00,
2013-11-25 18:43:00,32.8,15.1,30.35,North,0,0.0,0.0,48,0.00,,,0.00,WUHU216HW,2013-11-25 23:43:00,
2013-11-25 18:48:00,32.6,15.5,30.35,North,0,0.0,0.0,49,0.00,,,0.00,WUHU216HW,2013-11-25 23:48:00,
2013-11-25 18:53:00,32.8,15.7,30.35,North,0,0.0,0.0,49,0.00,,,0.00,WUHU216HW,2013-11-25 23:53:00,
2013-11-25 18:58:00,32.8,15.7,30.35,North,0,0.0,0.0,49,0.00,,,0.00,WUHU216HW,2013-11-25 23:58:00,
2013-11-25 19:03:00,32.8,15.7,30.35,North,0,0.0,0.0,49,0.00,,,0.00,WUHU216HW,2013-11-26 00:03:00,
2013-11-25 19:08:00,32.8,15.7,30.36,North,0,0.0,0.0,49,0.00,,,0.00,WUHU216HW,2013-11-26 00:08:00,
2013-11-25 19:13:00,33.3,16.7,30.36,North,0,0.0,0.0,50,0.00,,,0.00,WUHU216HW,2013-11-26 00:13:00,
2013-11-25 19:18:00,33.5,16.7,30.36,North,0,0.0,0.0,50,0.00,,,0.00,WUHU216HW,2013-11-26 00:18:00,
2013-11-25 19:23:00,33.5,16.7,30.35,North,0,0.0,0.0,50,0.00,,,0.00,WUHU216HW,2013-11-26 00:23:00,
2013-11-25 19:28:00,33.3,16.7,30.36,North,0,0.0,0.0,50,0.00,,,0.00,WUHU216HW,2013-11-26 00:28:00,
2013-11-25 19:33:00,33.3,16.1,30.36,North,0,0.0,0.0,49,0.00,,,0.00,WUHU216HW,2013-11-26 00:33:00,
2013-11-25 19:38:00,33.1,16.5,30.37,North,0,0.0,0.0,50,0.00,,,0.00,WUHU216HW,2013-11-26 00:38:00,
2013-11-25 19:43:00,33.1,16.5,30.36,North,0,0.0,0.0,50,0.00,,,0.00,WUHU216HW,2013-11-26 00:43:00,
2013-11-25 19:48:00,33.3,16.7,30.36,North,0,0.0,0.0,50,0.00,,,0.00,WUHU216HW,2013-11-26 00:48:00,
2013-11-25 19:53:00,33.3,16.7,30.35,North,0,0.0,0.0,50,0.00,,,0.00,WUHU216HW,2013-11-26 00:53:00,
2013-11-25 19:58:00,34.0,18.2,30.35,North,0,0.0,0.0,52,0.00,,,0.00,WUHU216HW,2013-11-26 00:58:00,
2013-11-25 20:03:00,34.4,18.1,30.35,North,0,0.0,0.0,51,0.00,,,0.00,WUHU216HW,2013-11-26 01:03:00,
2013-11-25 20:08:00,34.2,17.5,30.35,North,0,0.0,0.0,50,0.00,,,0.00,WUHU216HW,2013-11-26 01:08:00,
2013-11-25 20:13:00,34.0,17.3,30.35,North,0,0.0,0.0,50,0.00,,,0.00,WUHU216HW,2013-11-26 01:13:00,
2013-11-25 20:18:00,33.8,17.1,30.35,North,0,0.0,0.0,50,0.00,,,0.00,WUHU216HW,2013-11-26 01:18:00,
2013-11-25 20:23:00,33.8,17.6,30.35,North,0,0.0,0.0,51,0.00,,,0.00,WUHU216HW,2013-11-26 01:23:00,
2013-11-25 20:28:00,33.8,17.6,30.35,North,0,0.0,0.0,51,0.00,,,0.00,WUHU216HW,2013-11-26 01:28:00,
2013-11-25 20:33:00,34.0,17.7,30.35,North,0,0.0,0.0,51,0.00,,,0.00,WUHU216HW,2013-11-26 01:33:00,
2013-11-25 20:38:00,34.0,17.7,30.36,North,0,0.0,0.0,51,0.00,,,0.00,WUHU216HW,2013-11-26 01:38:00,
2013-11-25 20:43:00,34.2,17.9,30.36,North,0,0.0,0.0,51,0.00,,,0.00,WUHU216HW,2013-11-26 01:43:00,
2013-11-25 20:48:00,34.2,17.9,30.35,North,0,0.0,0.0,51,0.00,,,0.00,WUHU216HW,2013-11-26 01:48:00,
2013-11-25 20:53:00,34.2,18.4,30.35,North,0,0.0,0.0,52,0.00,,,0.00,WUHU216HW,2013-11-26 01:53:00,
2013-11-25 20:58:00,34.2,18.4,30.34,North,0,0.0,0.0,52,0.00,,,0.00,WUHU216HW,2013-11-26 01:58:00,
2013-11-25 21:03:00,34.2,18.4,30.35,North,0,0.0,0.0,52,0.00,,,0.00,WUHU216HW,2013-11-26 02:03:00,
2013-11-25 21:08:00,34.2,18.4,30.34,North,0,0.0,0.0,52,0.00,,,0.00,WUHU216HW,2013-11-26 02:08:00,
2013-11-25 21:13:00,34.2,18.4,30.33,North,0,0.0,0.0,52,0.00,,,0.00,WUHU216HW,2013-11-26 02:13:00,
2013-11-25 21:18:00,34.4,18.6,30.34,North,0,0.0,0.0,52,0.00,,,0.00,WUHU216HW,2013-11-26 02:18:00,
2013-11-25 21:23:00,34.4,18.6,30.33,North,0,0.0,0.0,52,0.00,,,0.00,WUHU216HW,2013-11-26 02:23:00,
2013-11-25 21:28:00,34.6,18.3,30.33,North,0,0.0,0.0,51,0.00,,,0.00,WUHU216HW,2013-11-26 02:28:00,
2013-11-25 21:33:00,34.6,18.3,30.33,North,0,0.0,0.0,51,0.00,,,0.00,WUHU216HW,2013-11-26 02:33:00,
2013-11-25 21:38:00,34.6,18.3,30.32,North,0,0.0,0.0,51,0.00,,,0.00,WUHU216HW,2013-11-26 02:38:00,
2013-11-25 21:43:00,34.6,18.3,30.33,North,0,0.0,0.0,51,0.00,,,0.00,WUHU216HW,2013-11-26 02:43:00,
2013-11-25 21:48:00,34.6,18.3,30.33,North,0,0.0,0.0,51,0.00,,,0.00,WUHU216HW,2013-11-26 02:48:00,
2013-11-25 21:53:00,34.7,18.0,30.32,North,0,0.0,0.0,50,0.00,,,0.00,WUHU216HW,2013-11-26 02:53:00,
2013-11-25 21:58:00,34.7,18.0,30.32,North,0,0.0,0.0,50,0.00,,,0.00,WUHU216HW,2013-11-26 02:58:00,
2013-11-25 22:03:00,34.6,17.8,30.32,North,0,0.0,0.0,50,0.00,,,0.00,WUHU216HW,2013-11-26 03:03:00,
2013-11-25 22:08:00,34.6,18.3,30.31,North,0,0.0,0.0,51,0.00,,,0.00,WUHU216HW,2013-11-26 03:08:00,
2013-11-25 22:13:00,34.7,18.5,30.30,North,0,0.0,0.0,51,0.00,,,0.00,WUHU216HW,2013-11-26 03:13:00,
2013-11-25 22:18:00,34.6,18.3,30.30,North,0,0.0,0.0,51,0.00,,,0.00,WUHU216HW,2013-11-26 03:18:00,
2013-11-25 22:23:00,34.6,18.3,30.31,North,0,0.0,0.0,51,0.00,,,0.00,WUHU216HW,2013-11-26 03:23:00,
2013-11-25 22:28:00,34.7,18.9,30.31,North,0,0.0,0.0,52,0.00,,,0.00,WUHU216HW,2013-11-26 03:28:00,
2013-11-25 22:33:00,34.9,19.1,30.31,North,0,0.0,0.0,52,0.00,,,0.00,WUHU216HW,2013-11-26 03:33:00,
2013-11-25 22:38:00,34.9,19.1,30.32,North,0,0.0,0.0,52,0.00,,,0.00,WUHU216HW,2013-11-26 03:38:00,
2013-11-25 22:43:00,34.9,19.1,30.32,North,0,0.0,0.0,52,0.00,,,0.00,WUHU216HW,2013-11-26 03:43:00,
2013-11-25 22:48:00,35.1,19.3,30.32,North,0,0.0,0.0,52,0.00,,,0.00,WUHU216HW,2013-11-26 03:48:00,
2013-11-25 22:53:00,35.1,19.3,30.32,North,0,0.0,0.0,52,0.00,,,0.00,WUHU216HW,2013-11-26 03:53:00,
2013-11-25 22:58:00,35.3,19.5,30.32,North,0,0.0,0.0,52,0.00,,,0.00,WUHU216HW,2013-11-26 03:58:00,
2013-11-25 23:03:00,35.3,19.5,30.33,North,0,0.0,0.0,52,0.00,,,0.00,WUHU216HW,2013-11-26 04:03:00,
2013-11-25 23:08:00,35.5,19.2,30.33,North,0,0.0,0.0,51,0.00,,,0.00,WUHU216HW,2013-11-26 04:08:00,
2013-11-25 23:13:00,35.6,19.4,30.32,North,0,0.0,0.0,51,0.00,,,0.00,WUHU216HW,2013-11-26 04:13:00,
2013-11-25 23:18:00,35.6,19.4,30.32,North,0,0.0,0.0,51,0.00,,,0.00,WUHU216HW,2013-11-26 04:18:00,
2013-11-25 23:23:00,35.6,19.4,30.32,North,0,0.0,0.0,51,0.00,,,0.00,WUHU216HW,2013-11-26 04:23:00,
2013-11-25 23:28:00,35.8,19.1,30.32,North,0,0.0,0.0,50,0.00,,,0.00,WUHU216HW,2013-11-26 04:28:00,
2013-11-25 23:33:00,35.8,19.1,30.31,North,0,0.0,0.0,50,0.00,,,0.00,WUHU216HW,2013-11-26 04:33:00,
2013-11-25 23:38:00,35.8,19.1,30.31,North,0,0.0,0.0,50,0.00,,,0.00,WUHU216HW,2013-11-26 04:38:00,
2013-11-25 23:43:00,35.8,19.1,30.31,North,0,0.0,0.0,50,0.00,,,0.00,WUHU216HW,2013-11-26 04:43:00,
2013-11-25 23:48:00,35.8,19.1,30.31,North,0,0.0,0.0,50,0.00,,,0.00,WUHU216HW,2013-11-26 04:48:00,
2013-11-25 23:53:00,36.0,18.7,30.31,North,0,0.0,0.0,49,0.00,,,0.00,WUHU216HW,2013-11-26 04:53:00,
2013-11-25 23:58:00,36.0,18.7,30.30,North,0,0.0,0.0,49,0.00,,,0.00,WUHU216HW,2013-11-26 04:58:00,